createdAt,value
2022-12-16T00:02:33.556Z,4147
2022-12-16T00:08:09.279Z,4147.5
2022-12-16T00:13:44.125Z,4147.6
2022-12-16T00:19:19.254Z,4148.3
2022-12-16T00:24:56.183Z,4145
2022-12-16T00:30:31.291Z,4146.6
2022-12-16T00:36:06.114Z,4145.3
2022-12-16T00:41:41.069Z,4146.1
2022-12-16T00:47:44.942Z,4143.4
2022-12-16T00:53:17.518Z,4145.3
2022-12-16T00:58:55.060Z,4144.3
2022-12-16T01:04:29.890Z,4144.8
2022-12-16T01:10:05.545Z,4146
2022-12-16T01:15:42.380Z,4143.6
2022-12-16T01:21:17.310Z,4142.3
2022-12-16T01:26:53.898Z,4143.6
2022-12-16T01:32:31.930Z,4143.1
2022-12-16T01:38:08.529Z,4145.3
2022-12-16T01:43:43.894Z,4143.3
2022-12-16T01:49:40.966Z,4137.6
2022-12-16T01:55:13.716Z,4142.3
2022-12-16T02:00:49.258Z,4144.3
2022-12-16T02:06:25.364Z,4141.4
2022-12-16T02:12:00.062Z,4141.1
2022-12-16T02:17:34.709Z,4143.4
2022-12-16T02:23:10.167Z,4139.9
2022-12-16T02:28:45.294Z,4141.3
2022-12-16T02:34:20.401Z,4140.8
2022-12-16T02:39:56.189Z,4139.8
2022-12-16T02:45:32.122Z,4140.3
2022-12-16T02:51:06.978Z,4138.4
2022-12-16T02:56:42.729Z,4137.9
2022-12-16T03:02:20.209Z,4137.2
2022-12-16T03:07:55.494Z,4138.6
2022-12-16T03:13:34.397Z,4137.2
2022-12-16T03:19:10.899Z,4137.6
2022-12-16T03:24:47.056Z,4137.8
2022-12-16T03:30:22.757Z,4136.9
2022-12-16T03:35:57.838Z,4134.9
2022-12-16T03:41:42.228Z,4137.8
2022-12-16T03:47:39.346Z,4132.7
2022-12-16T03:53:12.506Z,4133.2
2022-12-16T03:58:47.883Z,4132.9
2022-12-16T04:04:23.390Z,4136.1
2022-12-16T04:09:59.054Z,4134.9
2022-12-16T04:15:35.763Z,4134.1
2022-12-16T04:21:12.244Z,4139.8
2022-12-16T04:26:47.259Z,4131.9
2022-12-16T04:32:23.092Z,4134.4
2022-12-16T04:37:59.027Z,4135.4
2022-12-16T04:43:36.731Z,4132.9
2022-12-16T04:49:33.746Z,4130
2022-12-16T04:55:07.007Z,4131.9
2022-12-16T05:00:42.539Z,4132.7
2022-12-16T05:06:17.736Z,4131.4
2022-12-16T05:11:53.007Z,4129.7
2022-12-16T05:17:29.391Z,4132.6
2022-12-16T05:23:04.074Z,4130.2
2022-12-16T05:28:38.954Z,4128.4
2022-12-16T05:34:14.018Z,4127.4
2022-12-16T05:39:49.288Z,4132.2
2022-12-16T05:45:24.154Z,4129
2022-12-16T05:51:00.215Z,4132.4
2022-12-16T05:56:35.323Z,4131.6
2022-12-16T06:02:12.986Z,4127.2
2022-12-16T06:07:48.238Z,4126.2
2022-12-16T06:13:44.026Z,4127.2
2022-12-16T06:19:26.646Z,4126.5
2022-12-16T06:25:02.649Z,4126
2022-12-16T06:30:37.831Z,4126.4
2022-12-16T06:36:13.627Z,4128
2022-12-16T06:41:48.996Z,4125.9
2022-12-16T06:47:45.902Z,4123.2
2022-12-16T06:53:18.628Z,4124
2022-12-16T06:58:53.618Z,4124
2022-12-16T07:04:28.947Z,4122.8
2022-12-16T07:10:04.960Z,4124
2022-12-16T07:15:40.451Z,4122.5
2022-12-16T07:21:15.418Z,4121.3
2022-12-16T07:26:51.149Z,4124.2
2022-12-16T07:32:26.492Z,4121.7
2022-12-16T07:38:02.628Z,4117.3
2022-12-16T07:43:40.855Z,4122.7
2022-12-16T07:49:15.845Z,4120.2
2022-12-16T07:54:55.945Z,4120.8
2022-12-16T08:00:31.746Z,4119.7
2022-12-16T08:06:07.483Z,4118.5
2022-12-16T08:11:42.865Z,4118.2
2022-12-16T08:17:22.440Z,4120.3
2022-12-16T08:22:58.256Z,4119.3
2022-12-16T08:28:33.109Z,4116.1
2022-12-16T08:34:10.397Z,4114.1
2022-12-16T08:40:37.156Z,4114.8
2022-12-16T08:46:16.855Z,4118.3
2022-12-16T08:51:52.990Z,4116.6
2022-12-16T08:57:33.877Z,4119.5
2022-12-16T09:03:12.496Z,4124.4
2022-12-16T09:08:49.155Z,4123.3
2022-12-16T09:14:45.694Z,4119
2022-12-16T09:20:21.614Z,4125
2022-12-16T09:25:58.201Z,4119.5
2022-12-16T09:31:34.443Z,4119.5
2022-12-16T09:37:10.243Z,4124.9
2022-12-16T09:42:45.943Z,4132.1
2022-12-16T09:48:22.167Z,4131.2
2022-12-16T09:53:57.921Z,4130.9
2022-12-16T09:59:33.643Z,4128.7
2022-12-16T10:05:09.774Z,4133.2
2022-12-16T10:10:45.045Z,4127.7
2022-12-16T10:16:23.188Z,4132.1
2022-12-16T10:21:58.353Z,4134.7
2022-12-16T10:27:34.094Z,4136.7
2022-12-16T10:33:10.032Z,4130.7
2022-12-16T10:38:45.763Z,4121
2022-12-16T10:44:20.937Z,4123.2
2022-12-16T10:49:58.130Z,4124.5
2022-12-16T10:55:33.632Z,4123.3
2022-12-16T11:01:09.084Z,4129.7
2022-12-16T11:06:45.715Z,4137.9
2022-12-16T11:12:21.064Z,4135.1
2022-12-16T11:17:57.573Z,4134.9
2022-12-16T11:23:37.120Z,4140.4
2022-12-16T11:29:12.741Z,4129.5
2022-12-16T11:34:47.839Z,4140.4
2022-12-16T11:40:23.343Z,4136.1
2022-12-16T11:45:59.834Z,4138.6
2022-12-16T11:51:35.967Z,4135.1
2022-12-16T11:57:11.671Z,4134.4
2022-12-16T12:02:48.271Z,4137.1
2022-12-16T12:08:23.912Z,4141.8
2022-12-16T12:14:01.400Z,4135.2
2022-12-16T12:19:45.092Z,4132.2
2022-12-16T12:25:20.695Z,4141.9
2022-12-16T12:30:57.057Z,4142.6
2022-12-16T12:36:39.446Z,4138.1
2022-12-16T12:42:14.904Z,4131.7
2022-12-16T12:47:58.637Z,4132.4
2022-12-16T12:53:40.019Z,4128.5
2022-12-16T12:59:16.090Z,4128.4
2022-12-16T13:04:56.607Z,4125.4
2022-12-16T13:10:32.972Z,4125.7
2022-12-16T13:16:10.367Z,4125.5
2022-12-16T13:21:46.114Z,4122.3
2022-12-16T13:27:21.133Z,4123.3
2022-12-16T13:32:56.127Z,4121.7
2022-12-16T13:38:32.064Z,4122.2
2022-12-16T13:44:07.350Z,4122.8
2022-12-16T13:49:48.550Z,4121.2
2022-12-16T13:55:26.528Z,4122.2
2022-12-16T14:01:03.290Z,4121.5
2022-12-16T14:06:55.586Z,4119.2
2022-12-16T14:12:40.873Z,4120
2022-12-16T14:18:19.348Z,4121.3
2022-12-16T14:25:15.048Z,4119.3
2022-12-16T14:30:50.891Z,4119.7
2022-12-16T14:36:27.457Z,4120.7
2022-12-16T14:42:11.756Z,4117.3
2022-12-16T14:47:47.325Z,4119.5
2022-12-16T14:53:22.417Z,4116.8
2022-12-16T14:58:57.665Z,4117.3
2022-12-16T15:04:34.885Z,4115.3
2022-12-16T15:10:10.703Z,4113.5
2022-12-16T15:15:47.192Z,4112.8
2022-12-16T15:21:22.992Z,4116.6
2022-12-16T15:27:02.995Z,4112.3
2022-12-16T15:33:08.831Z,4113.6
2022-12-16T15:38:46.770Z,4111.3
2022-12-16T15:44:21.827Z,4113.5
2022-12-16T15:50:06.095Z,4108.9
2022-12-16T15:55:41.567Z,4110.3
2022-12-16T16:01:17.659Z,4109.3
2022-12-16T16:06:52.775Z,4110.3
2022-12-16T16:12:30.768Z,4112
2022-12-16T16:18:06.295Z,4110.1
2022-12-16T16:24:26.218Z,4106.9
2022-12-16T16:30:08.103Z,4107.8
2022-12-16T16:35:43.764Z,4106.8
2022-12-16T16:41:19.366Z,4109.1
2022-12-16T16:47:16.537Z,4105.6
2022-12-16T16:52:49.567Z,4107.3
2022-12-16T16:58:27.772Z,4107.3
2022-12-16T17:04:09.653Z,4105.4
2022-12-16T17:09:44.653Z,4108.8
2022-12-16T17:15:20.004Z,4106.4
2022-12-16T17:20:58.097Z,4106.3
2022-12-16T17:26:33.886Z,4106.3
2022-12-16T17:32:18.018Z,4106.8
2022-12-16T17:37:53.953Z,4106.4
2022-12-16T17:43:33.527Z,4105.3
2022-12-16T17:49:30.852Z,4102.1
2022-12-16T17:55:04.072Z,4101.4
2022-12-16T18:00:39.469Z,4103.8
2022-12-16T18:06:14.471Z,4103.2
2022-12-16T18:12:10.683Z,4103.6
2022-12-16T18:17:47.061Z,4102.9
2022-12-16T18:23:23.254Z,4104.9
2022-12-16T18:28:58.184Z,4105.8
2022-12-16T18:34:42.278Z,4103.1
2022-12-16T18:40:18.495Z,4103.6
2022-12-16T18:45:56.274Z,4105.9
2022-12-16T18:51:31.589Z,4101.7
2022-12-16T18:57:07.210Z,4102.6
2022-12-16T19:02:44.316Z,4102.2
2022-12-16T19:08:19.966Z,4102.7
2022-12-16T19:13:54.763Z,4100.7
2022-12-16T19:19:30.009Z,4103.7
2022-12-16T19:25:05.723Z,4100.7
2022-12-16T19:30:41.827Z,4106.4
2022-12-16T19:36:17.609Z,4104.6
2022-12-16T19:41:57.551Z,4101.7
2022-12-16T19:47:33.293Z,4100.1
2022-12-16T19:53:10.824Z,4100.6
2022-12-16T19:58:46.060Z,4102.6
2022-12-16T20:04:21.441Z,4097.9
2022-12-16T20:09:57.784Z,4097.9
2022-12-16T20:15:33.184Z,4097.4
2022-12-16T20:21:08.232Z,4100.4
2022-12-16T20:26:45.327Z,4097.4
2022-12-16T20:32:20.111Z,4098.6
2022-12-16T20:37:57.348Z,4099.6
2022-12-16T20:43:32.592Z,4098.9
2022-12-16T20:49:09.728Z,4097.7
2022-12-16T20:54:45.221Z,4097.2
2022-12-16T21:00:38.013Z,4098.1
2022-12-16T21:06:16.645Z,4097.2
2022-12-16T21:11:57.691Z,4098.2
2022-12-16T21:17:33.199Z,4098.6
2022-12-16T21:23:10.569Z,4097.6
2022-12-16T21:28:45.774Z,4098.2
2022-12-16T21:34:21.955Z,4095.9
2022-12-16T21:39:57.426Z,4095.5
2022-12-16T21:45:33.130Z,4094.2
2022-12-16T21:51:08.132Z,4095.4
2022-12-16T21:56:43.493Z,4095.5
2022-12-16T22:02:18.857Z,4094.7
2022-12-16T22:07:57.338Z,4095.7
2022-12-16T22:13:32.373Z,4096.4
2022-12-16T22:19:07.684Z,4094.5
2022-12-16T22:24:43.435Z,4095.4
2022-12-16T22:30:18.761Z,4093.7
2022-12-16T22:35:56.593Z,4093.7
2022-12-16T22:41:32.297Z,4093
2022-12-16T22:47:29.920Z,4090.7
2022-12-16T22:53:03.841Z,4092.9
2022-12-16T22:58:40.280Z,4092.4
2022-12-16T23:04:16.588Z,4089.3
2022-12-16T23:09:56.870Z,4091.9
2022-12-16T23:15:32.693Z,4092
2022-12-16T23:21:09.632Z,4091.4
2022-12-16T23:26:46.211Z,4092.7
2022-12-16T23:32:21.189Z,4092.5
2022-12-16T23:37:57.137Z,4090.7
2022-12-16T23:43:33.179Z,4089.3
2022-12-16T23:49:30.078Z,4087.7
2022-12-16T23:55:02.643Z,4092.7
